Time;durP1;ratioP1;P1;durP2;ratioP2;P2;SDS_P1;SDS_P2;PMS_P1;PMS_P2;Temp;Humidity;BMP_temperature;BMP_pressure;BME280_temperature;BME280_humidity;BME280_pressure;Samples;Min_cycle;Max_cycle;Signal;HPM_P1;HPM_P2
2023/04/21 00:02:02;;;;;;;21.33;19.42;;;;;;;7.06;100.00;101451.09;5038977;28;20495;-62
2023/04/21 00:04:27;;;;;;;20.60;18.80;;;;;;;6.82;100.00;101454.16;5026002;28;20034;-62
2023/04/21 00:06:54;;;;;;;11.82;10.05;;;;;;;7.19;100.00;101450.38;5028507;28;20353;-62
2023/04/21 00:09:20;;;;;;;15.80;14.20;;;;;;;7.10;100.00;101440.63;5043596;28;20090;-62
2023/04/21 00:11:45;;;;;;;21.73;19.77;;;;;;;7.01;100.00;101431.69;5039611;28;20422;-62
2023/04/21 00:14:11;;;;;;;20.35;18.52;;;;;;;7.00;100.00;101421.81;5044464;28;20029;-62
2023/04/21 00:16:36;;;;;;;20.85;18.98;;;;;;;6.95;100.00;101424.28;5028698;28;20029;-62
2023/04/21 00:19:05;;;;;;;13.27;11.25;;;;;;;6.83;100.00;101421.19;5045070;28;20021;-62
2023/04/21 00:21:31;;;;;;;21.20;19.10;;;;;;;6.68;100.00;101429.41;5029026;28;20099;-62
2023/04/21 00:23:56;;;;;;;20.15;18.25;;;;;;;6.78;100.00;101420.91;5044693;28;20063;-62
2023/04/21 00:26:21;;;;;;;22.35;20.25;;;;;;;6.80;100.00;101423.47;5045138;28;20198;-62
2023/04/21 00:28:47;;;;;;;14.75;13.15;;;;;;;7.13;100.00;101404.72;5039453;28;20033;-62
2023/04/21 00:31:12;;;;;;;19.13;17.23;;;;;;;6.91;100.00;101398.41;5028948;28;20468;-63
2023/04/21 00:33:37;;;;;;;20.60;18.70;;;;;;;6.84;100.00;101394.72;5039794;28;20025;-62
2023/04/21 00:36:03;;;;;;;20.92;19.02;;;;;;;6.79;100.00;101405.38;5046994;28;20035;-62
2023/04/21 00:38:28;;;;;;;20.40;18.60;;;;;;;6.72;100.00;101405.31;5046734;28;20029;-62
2023/04/21 00:40:54;;;;;;;14.73;12.75;;;;;;;6.81;100.00;101403.31;5039257;28;20025;-62
2023/04/21 00:43:19;;;;;;;20.85;19.05;;;;;;;6.70;100.00;101408.25;5045210;28;20108;-61
2023/04/21 00:45:45;;;;;;;20.88;18.92;;;;;;;6.69;100.00;101398.38;5045665;28;20033;-62
2023/04/21 00:48:11;;;;;;;21.17;19.17;;;;;;;6.71;100.00;101395.44;5047370;28;20041;-62
2023/04/21 00:50:36;;;;;;;21.05;19.13;;;;;;;6.69;100.00;101403.81;5046775;28;20029;-62
2023/04/21 00:53:02;;;;;;;20.77;18.95;;;;;;;6.68;100.00;101413.03;5047333;28;20025;-62
2023/04/21 00:55:28;;;;;;;19.45;17.50;;;;;;;6.70;100.00;101396.47;5048041;28;20036;-62
2023/04/21 00:57:55;;;;;;;20.23;18.33;;;;;;;6.73;100.00;101396.91;5046821;28;20039;-62
2023/04/21 01:00:20;;;;;;;21.42;19.42;;;;;;;6.69;100.00;101398.38;5046429;28;20057;-62
2023/04/21 01:02:45;;;;;;;20.00;18.10;;;;;;;6.68;100.00;101396.66;5046517;28;20109;-62
2023/04/21 01:05:11;;;;;;;20.67;18.77;;;;;;;6.69;100.00;101401.09;5047921;28;20088;-62
2023/04/21 01:07:37;;;;;;;20.42;18.52;;;;;;;6.68;100.00;101393.91;5047172;28;20037;-62
2023/04/21 01:10:02;;;;;;;20.73;18.73;;;;;;;6.67;100.00;101386.78;5048089;28;20544;-62
2023/04/21 01:12:28;;;;;;;18.77;16.88;;;;;;;6.68;100.00;101388.47;5046243;28;20029;-62
2023/04/21 01:14:53;;;;;;;20.25;18.30;;;;;;;6.77;100.00;101383.75;5047042;28;20021;-62
2023/04/21 01:17:19;;;;;;;21.70;19.70;;;;;;;6.69;100.00;101386.56;5047739;28;20029;-62
2023/04/21 01:19:44;;;;;;;21.90;19.80;;;;;;;6.65;100.00;101383.41;5046618;28;20025;-62
2023/04/21 01:22:11;;;;;;;20.33;18.45;;;;;;;6.68;100.00;101383.00;5046134;28;20553;-62
2023/04/21 01:24:47;;;;;;;22.05;19.98;;;;;;;6.67;100.00;101370.41;5046968;28;20582;-62
2023/04/21 01:27:18;;;;;;;21.55;19.52;;;;;;;6.68;100.00;101380.28;5040419;28;20044;-63
2023/04/21 01:29:46;;;;;;;20.05;18.15;;;;;;;6.85;100.00;101366.41;5047004;28;20116;-62
2023/04/21 01:32:14;;;;;;;21.43;19.30;;;;;;;6.87;100.00;101378.81;5047304;28;20029;-62
2023/04/21 01:34:40;;;;;;;21.63;19.63;;;;;;;6.66;100.00;101368.72;5045380;28;20290;-62
2023/04/21 01:37:15;;;;;;;21.88;19.70;;;;;;;6.63;100.00;101377.28;5046239;28;20029;-62
2023/04/21 01:39:41;;;;;;;23.35;21.05;;;;;;;6.65;100.00;101388.03;5047132;28;20021;-62
2023/04/21 01:42:07;;;;;;;18.83;16.83;;;;;;;6.82;100.00;101377.72;5046807;28;20023;-62
2023/04/21 01:44:33;;;;;;;20.33;18.33;;;;;;;6.87;100.00;101377.97;5046125;28;20029;-62
2023/04/21 01:46:59;;;;;;;21.73;19.67;;;;;;;6.73;100.00;101372.34;5046828;28;20090;-62
2023/04/21 01:49:24;;;;;;;20.45;18.45;;;;;;;6.70;100.00;101367.28;5033801;28;20116;-62
2023/04/21 01:51:50;;;;;;;15.45;13.85;;;;;;;6.95;100.00;101354.13;5040662;28;20120;-62
2023/04/21 01:54:15;;;;;;;20.63;18.63;;;;;;;6.72;100.00;101362.47;5020781;28;20033;-62
2023/04/21 01:56:40;;;;;;;19.98;18.08;;;;;;;6.89;100.00;101359.50;5028156;28;20063;-62
2023/04/21 01:59:06;;;;;;;15.55;13.68;;;;;;;7.05;100.00;101348.34;5035927;28;20040;-62
2023/04/21 02:01:31;;;;;;;18.85;17.05;;;;;;;6.83;100.00;101342.00;5045099;28;20728;-62
2023/04/21 02:03:56;;;;;;;14.85;12.93;;;;;;;6.97;100.00;101337.53;5044590;28;20074;-62
2023/04/21 02:06:22;;;;;;;20.65;18.75;;;;;;;6.73;100.00;101338.75;5037070;28;20048;-62
2023/04/21 02:08:47;;;;;;;19.98;17.98;;;;;;;6.84;100.00;101345.59;5035541;28;20033;-62
2023/04/21 02:11:12;;;;;;;19.20;17.20;;;;;;;6.82;100.00;101336.75;5030484;28;20025;-63
2023/04/21 02:13:37;;;;;;;21.00;19.00;;;;;;;6.86;100.00;101322.53;5046347;28;20044;-63
2023/04/21 02:16:03;;;;;;;21.38;19.27;;;;;;;6.73;100.00;101328.69;5029323;28;20534;-62
2023/04/21 02:18:28;;;;;;;20.98;18.95;;;;;;;6.75;100.00;101317.59;5031162;28;20084;-62
2023/04/21 02:20:55;;;;;;;16.75;13.90;;;;;;;6.65;100.00;101322.50;5013095;28;20068;-62
2023/04/21 02:23:20;;;;;;;16.75;14.90;;;;;;;6.93;100.00;101317.13;5029738;28;20112;-62
2023/04/21 02:25:45;;;;;;;21.50;19.45;;;;;;;6.73;100.00;101308.72;5026123;28;20167;-62
2023/04/21 02:28:10;;;;;;;21.13;19.02;;;;;;;6.65;100.00;101315.16;5026442;28;20049;-62
2023/04/21 02:30:36;;;;;;;15.82;13.93;;;;;;;6.89;100.00;101308.47;5034631;28;20114;-62
2023/04/21 02:33:01;;;;;;;20.90;18.80;;;;;;;6.84;100.00;101310.94;5042460;28;20284;-62
2023/04/21 02:35:26;;;;;;;14.68;12.75;;;;;;;6.90;100.00;101314.78;5030496;28;20456;-62
2023/04/21 02:37:52;;;;;;;20.48;18.38;;;;;;;6.92;100.00;101319.00;5089591;22;20799;-60
2023/04/21 02:40:17;;;;;;;18.02;15.88;;;;;;;6.76;100.00;101309.19;5024201;28;20045;-62
2023/04/21 02:42:42;;;;;;;23.90;21.60;;;;;;;6.76;100.00;101311.91;5025763;28;20022;-63
2023/04/21 02:45:08;;;;;;;15.55;13.65;;;;;;;6.87;100.00;101304.25;5026499;28;20033;-62
2023/04/21 02:47:34;;;;;;;24.58;22.27;;;;;;;6.67;100.00;101299.44;5023842;28;20045;-62
2023/04/21 02:49:59;;;;;;;24.55;22.15;;;;;;;6.75;100.00;101301.19;5025793;28;20087;-62
2023/04/21 02:52:24;;;;;;;23.48;21.08;;;;;;;6.76;100.00;101298.28;5025380;28;20029;-62
2023/04/21 02:54:49;;;;;;;16.98;14.82;;;;;;;7.12;100.00;101289.16;5026197;28;20032;-62
2023/04/21 02:57:15;;;;;;;21.17;18.63;;;;;;;6.86;100.00;101284.31;5025423;28;20025;-62
2023/04/21 02:59:40;;;;;;;25.23;22.60;;;;;;;6.72;100.00;101291.50;5026722;28;20045;-62
2023/04/21 03:02:05;;;;;;;26.20;23.55;;;;;;;6.76;100.00;101292.81;5025645;28;20029;-62
2023/04/21 03:04:31;;;;;;;24.42;21.83;;;;;;;6.64;100.00;101282.59;5025037;28;20040;-62
2023/04/21 03:06:56;;;;;;;26.92;24.13;;;;;;;6.76;100.00;101284.63;5024975;28;20035;-62
2023/04/21 03:09:22;;;;;;;24.88;22.17;;;;;;;6.70;100.00;101285.41;5024476;28;20099;-62
2023/04/21 03:11:47;;;;;;;24.52;21.95;;;;;;;6.78;100.00;101281.69;5025471;28;20017;-62
2023/04/21 03:14:12;;;;;;;24.30;20.33;;;;;;;6.66;100.00;101286.84;5025841;28;20418;-63
2023/04/21 03:16:37;;;;;;;26.45;23.75;;;;;;;6.73;100.00;101293.19;5026643;28;20030;-62
2023/04/21 03:19:03;;;;;;;28.02;25.13;;;;;;;6.62;100.00;101285.53;5023667;28;20076;-62
2023/04/21 03:21:28;;;;;;;28.13;25.23;;;;;;;6.64;100.00;101294.38;5023402;28;20029;-62
2023/04/21 03:23:53;;;;;;;28.45;25.48;;;;;;;6.74;100.00;101288.56;5024809;28;20034;-62
2023/04/21 03:26:18;;;;;;;29.85;26.75;;;;;;;6.60;100.00;101282.16;5025064;28;22454;-62
2023/04/21 03:28:44;;;;;;;28.80;25.80;;;;;;;6.55;100.00;101273.72;5026546;28;20025;-62
2023/04/21 03:31:09;;;;;;;26.83;23.80;;;;;;;6.55;100.00;101275.59;5023295;28;20065;-62
2023/04/21 03:33:34;;;;;;;29.80;26.80;;;;;;;6.45;100.00;101275.91;5023092;28;20017;-62
2023/04/21 03:36:00;;;;;;;29.08;26.17;;;;;;;6.55;100.00;101276.44;5024336;28;20040;-62
2023/04/21 03:38:27;;;;;;;29.65;26.55;;;;;;;6.45;100.00;101278.63;5024722;28;20508;-62
2023/04/21 03:40:53;;;;;;;30.90;27.55;;;;;;;6.44;100.00;101276.94;5043226;28;20025;-62
2023/04/21 03:43:18;;;;;;;30.95;27.70;;;;;;;6.45;100.00;101274.03;5028654;28;20091;-62
2023/04/21 03:45:43;;;;;;;30.92;27.73;;;;;;;6.50;100.00;101270.72;5028647;28;20026;-62
2023/04/21 03:48:08;;;;;;;30.80;27.55;;;;;;;6.52;100.00;101273.25;5027530;28;20076;-62
2023/04/21 03:50:34;;;;;;;32.10;28.80;;;;;;;6.51;100.00;101272.41;5027269;28;20037;-62
2023/04/21 03:52:59;;;;;;;33.45;29.95;;;;;;;6.49;100.00;101264.41;5028399;28;20028;-62
2023/04/21 03:55:24;;;;;;;31.83;28.52;;;;;;;6.48;100.00;101267.31;5028503;28;20079;-62
2023/04/21 03:57:50;;;;;;;31.08;27.95;;;;;;;6.44;100.00;101260.56;5028757;28;20163;-62
2023/04/21 04:00:15;;;;;;;30.73;27.42;;;;;;;6.42;100.00;101271.66;5028786;28;20074;-63
2023/04/21 04:02:41;;;;;;;31.65;28.27;;;;;;;6.37;100.00;101276.84;5027523;28;20041;-62
2023/04/21 04:05:06;;;;;;;32.45;29.02;;;;;;;6.35;100.00;101272.66;5028411;28;20055;-62
2023/04/21 04:07:32;;;;;;;32.10;28.75;;;;;;;6.32;100.00;101271.13;5028725;28;20784;-62
2023/04/21 04:09:57;;;;;;;32.10;28.80;;;;;;;6.31;100.00;101265.88;5028321;28;20021;-62
2023/04/21 04:12:23;;;;;;;32.88;29.38;;;;;;;6.27;100.00;101272.75;5028340;28;20029;-62
2023/04/21 04:14:48;;;;;;;31.83;28.52;;;;;;;6.31;100.00;101266.72;5029191;28;20033;-62
2023/04/21 04:17:13;;;;;;;32.10;28.80;;;;;;;6.24;100.00;101261.19;5027388;28;20472;-63
2023/04/21 04:19:38;;;;;;;32.03;28.63;;;;;;;6.22;100.00;101279.63;5028131;28;20040;-62
2023/04/21 04:22:04;;;;;;;32.15;28.85;;;;;;;6.19;100.00;101274.56;5028605;28;20381;-62
2023/04/21 04:24:32;;;;;;;33.15;29.75;;;;;;;6.20;100.00;101280.88;5028520;28;20038;-62
2023/04/21 04:26:58;;;;;;;31.80;28.52;;;;;;;6.19;100.00;101277.28;5027384;28;20168;-63
2023/04/21 04:29:24;;;;;;;32.80;29.45;;;;;;;6.17;100.00;101275.78;5028100;28;20029;-62
2023/04/21 04:31:49;;;;;;;32.80;29.08;;;;;;;6.17;100.00;101279.34;5028930;28;20018;-62
2023/04/21 04:34:15;;;;;;;31.08;27.77;;;;;;;6.15;100.00;101278.69;5027660;28;20029;-63
2023/04/21 04:36:41;;;;;;;32.67;29.15;;;;;;;6.17;100.00;101283.97;5028593;28;20032;-62
2023/04/21 04:39:07;;;;;;;32.72;29.10;;;;;;;6.20;100.00;101276.25;5028380;28;20570;-62
2023/04/21 04:41:32;;;;;;;32.55;29.17;;;;;;;6.20;100.00;101281.69;5028263;28;20060;-62
2023/04/21 04:43:58;;;;;;;33.17;29.67;;;;;;;6.20;100.00;101281.69;5027572;28;20779;-63
2023/04/21 04:46:24;;;;;;;33.00;29.50;;;;;;;6.24;100.00;101279.44;5027875;28;20116;-62
2023/04/21 04:48:50;;;;;;;33.40;30.00;;;;;;;6.23;100.00;101289.50;5027380;28;20021;-63
2023/04/21 04:51:15;;;;;;;32.03;28.65;;;;;;;6.21;100.00;101288.84;5025279;28;20478;-63
2023/04/21 04:53:41;;;;;;;33.42;29.92;;;;;;;6.24;100.00;101287.63;5025920;28;20499;-62
2023/04/21 04:56:06;;;;;;;33.33;29.75;;;;;;;6.27;100.00;101281.78;5024970;28;20078;-62
2023/04/21 04:58:32;;;;;;;33.85;30.25;;;;;;;6.30;100.00;101288.75;5038056;28;20190;-62
2023/04/21 05:00:57;;;;;;;33.03;29.55;;;;;;;6.39;100.00;101291.16;5036188;28;20635;-62
2023/04/21 05:03:22;;;;;;;33.25;29.80;;;;;;;6.36;100.00;101287.97;5023594;28;20448;-62
2023/04/21 05:05:48;;;;;;;34.55;30.85;;;;;;;6.41;100.00;101288.22;5033473;28;20093;-63
2023/04/21 05:08:13;;;;;;;33.38;29.90;;;;;;;6.40;100.00;101290.13;5022645;28;20760;-63
2023/04/21 05:10:38;;;;;;;32.88;29.38;;;;;;;6.42;100.00;101289.91;5027180;28;20042;-63
2023/04/21 05:13:04;;;;;;;34.95;31.35;;;;;;;6.40;100.00;101290.13;5027138;28;20234;-62
2023/04/21 05:15:29;;;;;;;34.42;30.90;;;;;;;6.44;100.00;101291.44;5024748;28;20288;-62
2023/04/21 05:17:55;;;;;;;34.90;31.20;;;;;;;6.42;100.00;101295.38;5024416;28;20060;-61
2023/04/21 05:20:21;;;;;;;35.10;31.42;;;;;;;6.41;100.00;101301.88;5024233;28;20116;-63
2023/04/21 05:22:46;;;;;;;36.30;32.47;;;;;;;6.42;100.00;101295.38;5024189;28;20464;-63
2023/04/21 05:25:14;;;;;;;34.53;31.02;;;;;;;6.45;100.00;101295.84;5025432;28;20037;-62
2023/04/21 05:27:40;;;;;;;34.75;31.10;;;;;;;6.48;100.00;101302.78;5024939;28;20476;-62
2023/04/21 05:30:06;;;;;;;33.80;30.23;;;;;;;6.51;100.00;101302.41;5024787;28;20037;-62
2023/04/21 05:32:31;;;;;;;34.67;30.95;;;;;;;6.54;100.00;101307.50;5024516;28;20413;-62
2023/04/21 05:34:58;;;;;;;35.78;31.95;;;;;;;6.56;100.00;101302.69;5025682;28;20029;-63
2023/04/21 05:37:23;;;;;;;35.03;31.42;;;;;;;6.63;100.00;101302.75;5024613;28;20034;-62
2023/04/21 05:39:49;;;;;;;36.65;32.85;;;;;;;6.67;100.00;101314.97;5025178;28;20453;-62
2023/04/21 05:42:17;;;;;;;35.97;32.15;;;;;;;6.76;100.00;101317.38;5024745;28;20033;-63
2023/04/21 05:44:42;;;;;;;35.92;32.15;;;;;;;6.84;100.00;101310.09;5023696;28;20472;-64
2023/04/21 05:47:08;;;;;;;34.92;31.33;;;;;;;6.90;100.00;101315.63;5025513;28;20059;-63
2023/04/21 05:49:33;;;;;;;35.83;31.92;;;;;;;7.01;100.00;101314.25;5023969;28;20112;-63
2023/04/21 05:51:58;;;;;;;34.97;31.40;;;;;;;7.14;100.00;101317.09;5024654;28;20013;-62
2023/04/21 05:54:24;;;;;;;34.25;30.73;;;;;;;7.23;100.00;101324.13;5023850;28;20021;-62
2023/04/21 05:56:49;;;;;;;33.10;29.73;;;;;;;7.28;100.00;101320.78;5025198;28;20112;-62
2023/04/21 05:59:15;;;;;;;33.45;29.98;;;;;;;7.37;100.00;101322.34;5023917;28;20072;-63
2023/04/21 06:01:40;;;;;;;32.97;29.65;;;;;;;7.33;100.00;101325.66;5022327;28;20041;-64
2023/04/21 06:04:06;;;;;;;31.88;28.63;;;;;;;7.41;100.00;101322.81;5024977;28;20030;-62
2023/04/21 06:06:31;;;;;;;33.38;29.98;;;;;;;7.49;100.00;101323.47;5023204;28;20029;-62
2023/04/21 06:08:56;;;;;;;32.75;29.55;;;;;;;7.55;100.00;101319.09;5025412;28;20061;-62
2023/04/21 06:11:22;;;;;;;32.90;29.77;;;;;;;7.51;100.00;101313.22;5024721;28;20021;-63
2023/04/21 06:13:48;;;;;;;32.55;29.25;;;;;;;7.52;100.00;101314.91;5025713;28;20013;-63
2023/04/21 06:16:13;;;;;;;32.90;29.60;;;;;;;7.54;100.00;101317.41;5022148;28;20338;-63
2023/04/21 06:18:39;;;;;;;32.58;29.33;;;;;;;7.63;100.00;101310.75;5024618;28;20060;-62
2023/04/21 06:21:04;;;;;;;32.35;29.13;;;;;;;7.74;100.00;101318.41;5024654;28;20029;-62
2023/04/21 06:23:29;;;;;;;33.15;29.90;;;;;;;7.78;100.00;101314.22;5025172;28;20025;-62
2023/04/21 06:26:03;;;;;;;33.45;30.25;;;;;;;7.80;100.00;101311.28;5023798;28;20494;-63
2023/04/21 06:28:30;;;;;;;29.15;26.15;;;;;;;7.82;100.00;101303.75;5025224;28;20037;-62
2023/04/21 06:30:55;;;;;;;32.42;29.23;;;;;;;7.76;100.00;101304.56;5024949;28;20125;-62
2023/04/21 06:33:20;;;;;;;32.28;29.05;;;;;;;7.79;100.00;101310.44;5024384;28;20109;-63
2023/04/21 06:35:46;;;;;;;32.70;29.50;;;;;;;7.98;100.00;101308.03;5024326;28;20025;-63
2023/04/21 06:38:11;;;;;;;32.00;29.00;;;;;;;7.96;100.00;101302.78;5025079;28;20057;-62
2023/04/21 06:40:36;;;;;;;32.13;29.02;;;;;;;8.10;100.00;101314.59;5024590;28;20034;-62
2023/04/21 06:43:01;;;;;;;32.58;29.38;;;;;;;8.32;100.00;101316.19;5024986;28;20029;-63
2023/04/21 06:45:27;;;;;;;32.13;29.02;;;;;;;8.51;100.00;101313.75;5013920;28;20117;-63
2023/04/21 06:47:52;;;;;;;31.88;28.67;;;;;;;8.84;100.00;101314.69;5003868;28;20030;-63
2023/04/21 06:50:17;;;;;;;30.95;28.00;;;;;;;9.10;100.00;101313.03;4998209;28;20045;-63
2023/04/21 06:52:43;;;;;;;30.10;27.25;;;;;;;9.26;100.00;101311.78;5003725;28;20100;-64
2023/04/21 06:55:08;;;;;;;27.85;25.08;;;;;;;9.36;100.00;101309.44;5005756;28;20032;-63
2023/04/21 06:57:33;;;;;;;30.55;27.75;;;;;;;9.46;100.00;101309.03;5002722;28;20034;-62
2023/04/21 06:59:59;;;;;;;27.63;25.13;;;;;;;9.58;100.00;101315.56;5001993;28;20101;-62
2023/04/21 07:02:24;;;;;;;28.92;26.13;;;;;;;9.94;100.00;101316.97;4988091;28;20026;-63
2023/04/21 07:04:49;;;;;;;26.88;24.27;;;;;;;10.37;100.00;101311.78;4995407;28;20037;-63
2023/04/21 07:07:15;;;;;;;27.10;24.60;;;;;;;10.82;100.00;101309.84;5004243;28;20030;-63
2023/04/21 07:09:40;;;;;;;25.63;23.30;;;;;;;11.14;100.00;101298.84;5003823;28;20041;-62
2023/04/21 07:12:05;;;;;;;24.45;22.25;;;;;;;11.35;100.00;101303.97;5002601;28;20026;-62
2023/04/21 07:14:30;;;;;;;24.70;22.40;;;;;;;11.49;100.00;101303.81;4997348;28;20033;-63
2023/04/21 07:16:56;;;;;;;23.02;20.83;;;;;;;11.65;100.00;101312.34;5008791;28;20022;-62
2023/04/21 07:19:22;;;;;;;23.52;21.42;;;;;;;12.07;97.50;101309.84;5011394;28;20033;-63
2023/04/21 07:21:47;;;;;;;22.35;20.17;;;;;;;12.03;96.10;101302.25;5014618;28;20112;-63
2023/04/21 07:24:12;;;;;;;22.75;20.73;;;;;;;11.79;95.62;101306.72;5011227;28;20034;-64
2023/04/21 07:26:37;;;;;;;22.67;20.70;;;;;;;11.53;98.17;101321.56;5011232;28;20046;-62
2023/04/21 07:29:03;;;;;;;24.20;22.05;;;;;;;11.41;98.71;101318.72;5010019;28;20058;-63
2023/04/21 07:31:28;;;;;;;24.25;22.02;;;;;;;11.35;99.98;101319.59;5012961;28;20464;-63
2023/04/21 07:33:53;;;;;;;22.85;20.85;;;;;;;11.48;99.13;101307.66;5015520;28;20022;-63
2023/04/21 07:36:18;;;;;;;22.92;20.92;;;;;;;11.90;96.67;101301.31;5010950;28;20587;-62
2023/04/21 07:38:44;;;;;;;22.48;20.48;;;;;;;12.20;94.12;101304.16;5024302;28;20392;-62
2023/04/21 07:41:10;;;;;;;23.15;21.15;;;;;;;12.38;92.41;101306.06;5030685;28;20037;-63
2023/04/21 07:43:36;;;;;;;22.42;20.42;;;;;;;12.30;90.20;101295.34;5027512;28;20056;-63
2023/04/21 07:46:01;;;;;;;22.17;20.27;;;;;;;12.50;91.71;101297.00;5028590;28;21373;-63
2023/04/21 07:48:27;;;;;;;21.77;19.88;;;;;;;13.17;89.79;101297.69;5022330;28;20037;-63
2023/04/21 07:50:52;;;;;;;20.50;18.67;;;;;;;13.85;83.54;101296.34;5026766;28;20491;-63
2023/04/21 07:53:17;;;;;;;19.70;18.00;;;;;;;13.60;81.67;101293.84;5027322;28;20029;-63
2023/04/21 07:55:43;;;;;;;19.73;18.02;;;;;;;13.19;83.03;101292.81;5029665;28;20018;-63
2023/04/21 07:58:09;;;;;;;20.85;19.05;;;;;;;12.79;87.94;101303.59;5027921;28;20065;-63
2023/04/21 08:00:34;;;;;;;21.23;19.42;;;;;;;12.68;88.39;101306.09;5026112;28;20029;-63
2023/04/21 08:03:00;;;;;;;21.38;19.48;;;;;;;12.65;86.27;101295.50;5020485;28;20083;-63
2023/04/21 08:05:25;;;;;;;20.35;18.52;;;;;;;12.59;87.30;101295.63;5025970;28;20095;-62
2023/04/21 08:07:51;;;;;;;20.05;18.35;;;;;;;12.70;84.97;101300.31;5027175;28;20029;-63
2023/04/21 08:10:16;;;;;;;20.55;18.75;;;;;;;12.67;87.78;101295.28;5026707;28;20027;-63
2023/04/21 08:12:41;;;;;;;18.73;17.02;;;;;;;12.62;85.24;101289.63;5026568;28;20108;-62
2023/04/21 08:15:07;;;;;;;16.98;15.48;;;;;;;12.62;84.96;101298.75;5026656;28;20025;-63
2023/04/21 08:17:33;;;;;;;16.95;15.45;;;;;;;12.71;85.43;101294.56;5023311;28;20022;-62
2023/04/21 08:19:58;;;;;;;17.30;15.80;;;;;;;12.82;86.23;101289.34;5023664;28;20036;-63
2023/04/21 08:22:23;;;;;;;18.08;16.52;;;;;;;12.88;87.83;101291.19;5026425;28;20029;-63
2023/04/21 08:24:49;;;;;;;16.42;14.93;;;;;;;12.88;86.43;101289.25;5025099;28;20072;-63
2023/04/21 08:27:14;;;;;;;16.45;15.05;;;;;;;12.82;84.16;101301.19;5024382;28;20036;-63
2023/04/21 08:29:39;;;;;;;16.67;15.10;;;;;;;12.86;86.21;101301.56;5028742;28;20025;-62
2023/04/21 08:32:05;;;;;;;18.25;16.65;;;;;;;12.95;85.23;101287.22;5027812;28;20025;-63
2023/04/21 08:34:30;;;;;;;16.58;15.07;;;;;;;12.98;84.08;101285.94;5028665;28;20072;-63
2023/04/21 08:36:55;;;;;;;15.77;14.38;;;;;;;13.05;83.93;101281.13;5029128;28;20092;-63
2023/04/21 08:39:20;;;;;;;16.67;15.18;;;;;;;12.94;85.63;101284.72;5024547;28;20525;-63
2023/04/21 08:41:46;;;;;;;16.67;15.18;;;;;;;12.98;83.86;101278.50;5014221;28;20080;-63
2023/04/21 08:44:12;;;;;;;14.80;13.40;;;;;;;13.55;82.68;101274.41;5007745;28;20041;-63
2023/04/21 08:46:38;;;;;;;16.48;14.98;;;;;;;13.66;79.79;101279.06;5008721;28;20040;-63
2023/04/21 08:49:03;;;;;;;16.35;14.95;;;;;;;13.79;79.72;101278.81;5010315;28;20034;-63
2023/04/21 08:51:30;;;;;;;16.23;14.73;;;;;;;14.02;80.00;101284.31;5007772;28;20096;-63
2023/04/21 08:53:56;;;;;;;12.63;10.48;;;;;;;14.25;75.06;101274.28;5009329;28;20022;-63
2023/04/21 08:56:25;;;;;;;17.67;16.13;;;;;;;13.81;79.18;101271.13;4989584;28;20025;-63
2023/04/21 08:58:50;;;;;;;18.20;16.30;;;;;;;14.35;77.68;101271.75;5012851;28;20088;-63
2023/04/21 09:01:15;;;;;;;16.50;15.00;;;;;;;14.79;75.49;101269.28;5011955;28;20463;-63
2023/04/21 09:03:40;;;;;;;16.75;15.25;;;;;;;14.86;74.74;101271.91;5020744;28;20034;-63
2023/04/21 09:06:08;;;;;;;15.55;14.15;;;;;;;15.29;74.59;101262.97;5008599;28;20030;-63
2023/04/21 09:08:56;;;;;;;14.90;13.50;;;;;;;15.22;71.23;101265.06;5014057;28;20033;-63
2023/04/21 09:11:22;;;;;;;14.55;13.15;;;;;;;14.48;73.56;101276.16;5015841;28;20116;-63
2023/04/21 09:13:47;;;;;;;15.60;14.18;;;;;;;14.57;74.62;101262.78;5007289;28;20552;-63
2023/04/21 09:16:20;;;;;;;14.38;13.07;;;;;;;15.25;72.76;101270.06;5005897;28;20038;-64
2023/04/21 09:18:45;;;;;;;15.43;14.13;;;;;;;16.06;69.85;101260.25;5007017;28;20121;-63
2023/04/21 09:21:15;;;;;;;14.45;13.15;;;;;;;16.04;69.46;101262.44;5014987;28;20539;-63
2023/04/21 09:23:51;;;;;;;14.90;13.60;;;;;;;15.77;70.20;101264.28;5011815;28;20135;-63
2023/04/21 09:26:21;;;;;;;14.68;13.38;;;;;;;16.81;69.03;101260.56;5005864;28;20116;-63
2023/04/21 09:28:48;;;;;;;14.77;13.48;;;;;;;16.89;64.47;101250.97;5014581;28;20025;-63
2023/04/21 09:31:23;;;;;;;11.13;10.02;;;;;;;16.54;64.81;101253.06;5011755;28;20026;-64
2023/04/21 09:33:50;;;;;;;14.10;12.85;;;;;;;15.97;67.59;101260.97;5008973;28;20037;-63
2023/04/21 09:36:27;;;;;;;14.32;13.02;;;;;;;15.67;70.96;101262.22;5019052;28;20316;-63
2023/04/21 09:38:52;;;;;;;15.40;14.07;;;;;;;16.11;70.04;101258.63;5019502;28;20057;-63
2023/04/21 09:41:18;;;;;;;14.20;12.90;;;;;;;16.89;66.51;101259.28;5027932;28;20029;-63
2023/04/21 09:43:43;;;;;;;14.30;13.00;;;;;;;17.41;65.08;101259.44;5030006;28;20487;-64
2023/04/21 09:46:10;;;;;;;14.23;12.98;;;;;;;17.54;63.56;101247.88;5014185;28;20156;-63
2023/04/21 09:48:40;;;;;;;14.13;12.82;;;;;;;17.75;62.46;101250.81;5027211;28;20021;-63
2023/04/21 09:51:06;;;;;;;12.25;11.05;;;;;;;17.22;62.45;101258.16;5025785;28;20029;-63
2023/04/21 09:53:33;;;;;;;13.95;12.68;;;;;;;17.68;65.88;101250.16;5026955;28;20087;-63
2023/04/21 09:56:01;;;;;;;12.40;11.30;;;;;;;19.51;57.34;101242.31;5025586;28;20031;-64
2023/04/21 09:58:31;;;;;;;13.17;11.97;;;;;;;19.64;57.31;101249.31;5023886;28;20044;-63
2023/04/21 10:00:56;;;;;;;11.15;10.07;;;;;;;18.73;57.40;101253.72;5027081;28;20612;-63
2023/04/21 10:03:26;;;;;;;10.82;9.82;;;;;;;17.78;59.52;101253.88;5021925;28;20079;-63
2023/04/21 10:05:51;;;;;;;10.82;9.77;;;;;;;18.13;59.69;101256.00;5023964;28;20045;-63
2023/04/21 10:08:17;;;;;;;10.85;9.85;;;;;;;18.01;59.54;101249.84;5027643;28;20022;-64
2023/04/21 10:10:44;;;;;;;11.15;10.15;;;;;;;17.05;60.93;101248.06;5025990;28;20386;-64
2023/04/21 10:13:15;;;;;;;11.23;10.10;;;;;;;17.57;62.60;101238.16;5025952;28;20106;-63
2023/04/21 10:15:40;;;;;;;11.90;10.80;;;;;;;18.03;61.53;101236.50;5023475;28;20479;-63
2023/04/21 10:18:15;;;;;;;11.57;10.48;;;;;;;18.88;60.76;101236.22;5023574;28;20072;-63
2023/04/21 10:21:06;;;;;;;11.57;10.48;;;;;;;18.82;58.52;101235.38;5014848;28;20241;-63
2023/04/21 10:23:42;;;;;;;11.98;10.88;;;;;;;18.51;58.35;101234.47;5022475;28;20021;-63
2023/04/21 10:26:10;;;;;;;11.95;10.93;;;;;;;17.86;58.27;101233.09;5025056;28;20022;-63
2023/04/21 10:28:42;;;;;;;13.38;12.18;;;;;;;16.96;61.75;101235.75;5025267;28;20021;-63
2023/04/21 10:31:28;;;;;;;12.70;11.60;;;;;;;17.29;63.50;101225.50;5024465;28;20577;-63
2023/04/21 10:34:08;;;;;;;11.35;10.35;;;;;;;16.73;63.57;101225.84;5024708;28;20036;-63
2023/04/21 10:36:41;;;;;;;11.38;10.38;;;;;;;17.44;64.09;101219.22;5024298;28;20112;-63
2023/04/21 10:39:06;;;;;;;13.63;12.43;;;;;;;17.88;59.83;101203.09;5024571;28;20060;-63
2023/04/21 10:41:33;;;;;;;13.13;12.02;;;;;;;18.64;57.80;101200.53;5024818;28;20468;-63
2023/04/21 10:44:15;;;;;;;12.30;11.20;;;;;;;18.51;59.80;101200.25;5022884;28;20029;-63
2023/04/21 10:46:45;;;;;;;13.65;12.45;;;;;;;18.98;57.21;101197.25;5024172;28;20021;-63
2023/04/21 10:49:21;;;;;;;14.77;13.38;;;;;;;17.92;57.74;101206.16;5025337;28;20030;-63
2023/04/21 10:51:56;;;;;;;13.55;12.35;;;;;;;17.44;61.25;101188.66;5008939;28;20014;-63
2023/04/21 10:54:21;;;;;;;13.55;12.45;;;;;;;17.25;61.75;101191.88;5015036;28;20026;-63
2023/04/21 10:56:50;;;;;;;14.25;13.05;;;;;;;16.81;62.66;101183.75;5016312;28;20036;-63
2023/04/21 10:59:17;;;;;;;14.60;13.40;;;;;;;18.49;61.18;101178.25;5017856;28;20029;-63
2023/04/21 11:01:42;;;;;;;14.00;12.75;;;;;;;20.30;54.76;101179.34;5014043;28;20072;-64
2023/04/21 11:04:15;;;;;;;11.20;10.20;;;;;;;19.98;53.79;101174.22;5013103;28;20049;-63
2023/04/21 11:06:40;;;;;;;11.40;10.38;;;;;;;19.78;53.03;101168.72;5002626;28;20033;-63